El Paso, TX

4:28 PM MDT on August 04, 2015 (GMT -0600)
El Paso International | | Change Station
CLOSE
Current Station
Airport
Location: El Paso,
Elevation: 3917 ft
Nearby Weather Stations

Elev 3917 ft 31.81 °N, 106.38 °W | Updated 37 minutes ago

Scattered Clouds
Scattered Clouds
96 °F
Feels Like 96 °F
N
4
Wind Variable Wind from SE

Today
High -- | Low -- °F
--% Chance of Precip.
Yesterday
High -- | Low -- °F
Precip. -- in
6:23 AM 7:59 PM
Waning Gibbous, 74% visible
Pressure 29.78 in
Visibility 10.0 miles
Clouds Few 9000 ft
Scattered Clouds 25000 ft
Dew Point 46 °F
Humidity 18%
Rainfall 0.00 in
Snow Depth Not available.
UV 7 out of 12
Pollen 5.30 out of 12
Air Quality Not available.
Flu Activity Not available.
METAR KELP 042151Z 13003KT 10SM FEW090 SCT250 36/08 A3001 RMK AO2 SLP082 CB DSNT NE E SE AND NW T03560078

More Conditions Fewer Conditions

Pressure 29.78 in
Visibility 10.0 miles
Clouds Few 9000 ft
Scattered Clouds 25000 ft
Dew Point 46 °F
Humidity 18%
Rainfall 0.00 in
Snow Depth Not available.
UV 7 out of 12
Pollen 5.30 out of 12
Air Quality Not available.
Flu Activity Not available.
METAR KELP 042151Z 13003KT 10SM FEW090 SCT250 36/08 A3001 RMK AO2 SLP082 CB DSNT NE E SE AND NW T03560078

More Conditions Fewer Conditions

10-Day Weather Forecast

×

Almanac

Astronomy

Aug. 04, 2015 Rise Set
Actual Time
Civil Twilight
Nautical Twilight
Astronomical Twilight
Moon
Length of Visible Light
Length of Day
Tomorrow will be .
, % of the Moon is Illuminated

Today's Extremes

State Highs State Lows

Community

WunderPhotos

Upload Photos

1,844,007 photos uploaded!

WunderBlogs® & News

Nearby

Air Quality

  Air Quality AQ Index Pollutant
Not available.

Snow Depth

Station Depth Elevation

Earthquake Activity

City Distance Mag. Time & Date
Minimum magnitude displayed is 2.5.

Coastal Water Temperatures

Place Temperature

Stations

Nearby Weather Stations

Station Location Temp. Windchill Dew Point Humidity Wind Precip. Elev Updated Type